sensor_id;sensor_type;location;lat;lon;timestamp;temperature;humidity
56512;DHT22;42408;53.238;5.686;2023-12-20T00:01:18;6.90;99.90
56512;DHT22;42408;53.238;5.686;2023-12-20T00:03:44;7.00;99.90
56512;DHT22;42408;53.238;5.686;2023-12-20T00:06:09;6.90;99.90
56512;DHT22;42408;53.238;5.686;2023-12-20T00:08:35;6.90;99.90
56512;DHT22;42408;53.238;5.686;2023-12-20T00:11:01;6.90;99.90
56512;DHT22;42408;53.238;5.686;2023-12-20T00:13:26;6.90;99.90
56512;DHT22;42408;53.238;5.686;2023-12-20T00:15:52;7.00;99.90
56512;DHT22;42408;53.238;5.686;2023-12-20T00:18:17;7.00;99.90
56512;DHT22;42408;53.238;5.686;2023-12-20T00:20:43;7.00;99.90
56512;DHT22;42408;53.238;5.686;2023-12-20T00:23:08;7.00;99.90
56512;DHT22;42408;53.238;5.686;2023-12-20T00:25:34;7.10;99.90
56512;DHT22;42408;53.238;5.686;2023-12-20T00:28:00;7.10;99.90
56512;DHT22;42408;53.238;5.686;2023-12-20T00:30:26;7.10;99.90
56512;DHT22;42408;53.238;5.686;2023-12-20T00:32:51;7.10;99.90
56512;DHT22;42408;53.238;5.686;2023-12-20T00:35:17;7.20;99.90
56512;DHT22;42408;53.238;5.686;2023-12-20T00:37:42;7.10;99.90
56512;DHT22;42408;53.238;5.686;2023-12-20T00:40:08;7.30;99.90
56512;DHT22;42408;53.238;5.686;2023-12-20T00:42:34;7.20;99.90
56512;DHT22;42408;53.238;5.686;2023-12-20T00:45:01;7.20;99.90
56512;DHT22;42408;53.238;5.686;2023-12-20T00:47:27;7.20;99.90
56512;DHT22;42408;53.238;5.686;2023-12-20T00:49:53;7.30;99.90
56512;DHT22;42408;53.238;5.686;2023-12-20T00:52:18;7.30;99.90
56512;DHT22;42408;53.238;5.686;2023-12-20T00:54:44;7.30;99.90
56512;DHT22;42408;53.238;5.686;2023-12-20T00:57:10;7.30;99.90
56512;DHT22;42408;53.238;5.686;2023-12-20T00:59:35;7.30;99.90
56512;DHT22;42408;53.238;5.686;2023-12-20T01:02:01;7.40;99.90
56512;DHT22;42408;53.238;5.686;2023-12-20T01:04:26;7.40;99.90
56512;DHT22;42408;53.238;5.686;2023-12-20T01:06:52;7.30;99.90
56512;DHT22;42408;53.238;5.686;2023-12-20T01:09:17;7.40;99.90
56512;DHT22;42408;53.238;5.686;2023-12-20T01:11:43;7.30;99.90
56512;DHT22;42408;53.238;5.686;2023-12-20T01:14:09;7.30;99.90
56512;DHT22;42408;53.238;5.686;2023-12-20T01:16:34;7.30;99.90
56512;DHT22;42408;53.238;5.686;2023-12-20T01:19:00;7.30;99.90
56512;DHT22;42408;53.238;5.686;2023-12-20T01:21:25;7.50;99.90
56512;DHT22;42408;53.238;5.686;2023-12-20T01:23:51;7.40;99.90
56512;DHT22;42408;53.238;5.686;2023-12-20T01:26:16;7.40;99.90
56512;DHT22;42408;53.238;5.686;2023-12-20T01:28:42;7.50;99.90
56512;DHT22;42408;53.238;5.686;2023-12-20T01:31:08;7.50;99.90
56512;DHT22;42408;53.238;5.686;2023-12-20T01:33:33;7.50;99.90
56512;DHT22;42408;53.238;5.686;2023-12-20T01:35:59;7.50;99.90
56512;DHT22;42408;53.238;5.686;2023-12-20T01:38:25;8.20;99.90
56512;DHT22;42408;53.238;5.686;2023-12-20T01:40:50;7.50;99.90
56512;DHT22;42408;53.238;5.686;2023-12-20T01:43:16;7.50;99.90
56512;DHT22;42408;53.238;5.686;2023-12-20T01:45:41;7.60;99.90
56512;DHT22;42408;53.238;5.686;2023-12-20T01:48:07;7.60;99.90
56512;DHT22;42408;53.238;5.686;2023-12-20T01:50:33;7.50;99.90
56512;DHT22;42408;53.238;5.686;2023-12-20T01:53:00;7.60;99.90
56512;DHT22;42408;53.238;5.686;2023-12-20T01:55:30;7.60;99.90
56512;DHT22;42408;53.238;5.686;2023-12-20T01:57:56;7.60;99.90
56512;DHT22;42408;53.238;5.686;2023-12-20T02:00:22;7.60;99.90
56512;DHT22;42408;53.238;5.686;2023-12-20T02:02:52;7.70;99.90
56512;DHT22;42408;53.238;5.686;2023-12-20T02:05:18;7.60;99.90
56512;DHT22;42408;53.238;5.686;2023-12-20T02:07:44;7.60;99.90
56512;DHT22;42408;53.238;5.686;2023-12-20T02:10:09;7.60;99.90
56512;DHT22;42408;53.238;5.686;2023-12-20T02:12:35;7.70;99.90
56512;DHT22;42408;53.238;5.686;2023-12-20T02:15:01;7.60;99.90
56512;DHT22;42408;53.238;5.686;2023-12-20T02:17:27;7.60;99.90
56512;DHT22;42408;53.238;5.686;2023-12-20T02:19:52;7.60;99.90
56512;DHT22;42408;53.238;5.686;2023-12-20T02:22:18;7.60;99.90
56512;DHT22;42408;53.238;5.686;2023-12-20T02:24:43;7.60;99.90
56512;DHT22;42408;53.238;5.686;2023-12-20T02:27:09;7.60;99.90
56512;DHT22;42408;53.238;5.686;2023-12-20T02:29:35;7.60;99.90
56512;DHT22;42408;53.238;5.686;2023-12-20T02:32:00;7.60;99.90
56512;DHT22;42408;53.238;5.686;2023-12-20T02:34:26;7.60;99.90
56512;DHT22;42408;53.238;5.686;2023-12-20T02:36:51;7.60;99.90
56512;DHT22;42408;53.238;5.686;2023-12-20T02:39:17;7.60;99.90
56512;DHT22;42408;53.238;5.686;2023-12-20T02:41:43;7.60;99.90
56512;DHT22;42408;53.238;5.686;2023-12-20T02:44:09;7.60;99.90
56512;DHT22;42408;53.238;5.686;2023-12-20T02:46:34;7.70;99.90
56512;DHT22;42408;53.238;5.686;2023-12-20T02:49:00;7.70;99.90
56512;DHT22;42408;53.238;5.686;2023-12-20T02:51:25;7.60;99.90
56512;DHT22;42408;53.238;5.686;2023-12-20T02:53:51;7.70;99.90
56512;DHT22;42408;53.238;5.686;2023-12-20T02:56:16;7.60;99.90
56512;DHT22;42408;53.238;5.686;2023-12-20T02:58:42;7.60;99.90
56512;DHT22;42408;53.238;5.686;2023-12-20T03:01:07;7.60;99.90
56512;DHT22;42408;53.238;5.686;2023-12-20T03:03:33;7.60;99.90
56512;DHT22;42408;53.238;5.686;2023-12-20T03:05:59;7.70;99.90
56512;DHT22;42408;53.238;5.686;2023-12-20T03:08:25;7.60;99.90
56512;DHT22;42408;53.238;5.686;2023-12-20T03:10:50;7.60;99.90
56512;DHT22;42408;53.238;5.686;2023-12-20T03:13:16;7.70;99.90
56512;DHT22;42408;53.238;5.686;2023-12-20T03:15:41;7.70;99.90
56512;DHT22;42408;53.238;5.686;2023-12-20T03:18:07;7.70;99.90
56512;DHT22;42408;53.238;5.686;2023-12-20T03:20:32;7.70;99.90
56512;DHT22;42408;53.238;5.686;2023-12-20T03:22:59;7.80;99.90
56512;DHT22;42408;53.238;5.686;2023-12-20T03:25:25;7.70;99.90
56512;DHT22;42408;53.238;5.686;2023-12-20T03:27:51;7.80;99.90
56512;DHT22;42408;53.238;5.686;2023-12-20T03:30:16;7.80;99.90
56512;DHT22;42408;53.238;5.686;2023-12-20T03:32:42;7.70;99.90
56512;DHT22;42408;53.238;5.686;2023-12-20T03:35:07;7.80;99.90
56512;DHT22;42408;53.238;5.686;2023-12-20T03:37:33;7.80;99.90
56512;DHT22;42408;53.238;5.686;2023-12-20T03:39:58;7.70;99.90
56512;DHT22;42408;53.238;5.686;2023-12-20T03:42:24;7.80;99.90
56512;DHT22;42408;53.238;5.686;2023-12-20T03:44:49;7.80;99.90
56512;DHT22;42408;53.238;5.686;2023-12-20T03:47:15;7.70;99.90
56512;DHT22;42408;53.238;5.686;2023-12-20T03:49:40;7.80;99.90
56512;DHT22;42408;53.238;5.686;2023-12-20T03:52:06;7.80;99.90
56512;DHT22;42408;53.238;5.686;2023-12-20T03:54:31;7.80;99.90
56512;DHT22;42408;53.238;5.686;2023-12-20T03:56:57;7.80;99.90
56512;DHT22;42408;53.238;5.686;2023-12-20T03:59:22;7.80;99.90
56512;DHT22;42408;53.238;5.686;2023-12-20T04:01:48;7.80;99.90
56512;DHT22;42408;53.238;5.686;2023-12-20T04:04:13;7.80;99.90
56512;DHT22;42408;53.238;5.686;2023-12-20T04:06:39;7.80;99.90
56512;DHT22;42408;53.238;5.686;2023-12-20T04:09:05;7.80;99.90
56512;DHT22;42408;53.238;5.686;2023-12-20T04:11:30;7.80;99.90
56512;DHT22;42408;53.238;5.686;2023-12-20T04:13:56;7.80;99.90
56512;DHT22;42408;53.238;5.686;2023-12-20T04:16:22;8.00;99.90
56512;DHT22;42408;53.238;5.686;2023-12-20T04:18:47;7.90;99.90
56512;DHT22;42408;53.238;5.686;2023-12-20T04:21:13;7.90;99.90
56512;DHT22;42408;53.238;5.686;2023-12-20T04:23:38;7.90;99.90
56512;DHT22;42408;53.238;5.686;2023-12-20T04:26:04;7.90;99.90
56512;DHT22;42408;53.238;5.686;2023-12-20T04:28:29;8.00;99.90
56512;DHT22;42408;53.238;5.686;2023-12-20T04:30:57;8.00;99.90
56512;DHT22;42408;53.238;5.686;2023-12-20T04:33:23;8.00;99.90
56512;DHT22;42408;53.238;5.686;2023-12-20T04:35:48;8.00;99.90
56512;DHT22;42408;53.238;5.686;2023-12-20T04:38:14;8.00;99.90
56512;DHT22;42408;53.238;5.686;2023-12-20T04:40:40;8.00;99.90
56512;DHT22;42408;53.238;5.686;2023-12-20T04:43:06;8.00;99.90
56512;DHT22;42408;53.238;5.686;2023-12-20T04:45:32;8.10;99.90
56512;DHT22;42408;53.238;5.686;2023-12-20T04:47:57;8.00;99.90
56512;DHT22;42408;53.238;5.686;2023-12-20T04:50:23;8.00;99.90
56512;DHT22;42408;53.238;5.686;2023-12-20T04:52:48;8.00;99.90
56512;DHT22;42408;53.238;5.686;2023-12-20T04:55:14;8.00;99.90
56512;DHT22;42408;53.238;5.686;2023-12-20T04:57:39;8.10;99.90
56512;DHT22;42408;53.238;5.686;2023-12-20T05:00:05;8.20;99.90
56512;DHT22;42408;53.238;5.686;2023-12-20T05:02:31;8.00;99.90
56512;DHT22;42408;53.238;5.686;2023-12-20T05:04:56;8.00;99.90
56512;DHT22;42408;53.238;5.686;2023-12-20T05:07:22;8.10;99.90
56512;DHT22;42408;53.238;5.686;2023-12-20T05:09:47;8.10;99.90
56512;DHT22;42408;53.238;5.686;2023-12-20T05:12:13;8.10;99.90
56512;DHT22;42408;53.238;5.686;2023-12-20T05:14:39;8.10;99.90
56512;DHT22;42408;53.238;5.686;2023-12-20T05:17:04;8.10;99.90
56512;DHT22;42408;53.238;5.686;2023-12-20T05:19:30;8.20;99.90
56512;DHT22;42408;53.238;5.686;2023-12-20T05:21:55;8.10;99.90
56512;DHT22;42408;53.238;5.686;2023-12-20T05:24:21;8.10;99.90
56512;DHT22;42408;53.238;5.686;2023-12-20T05:26:46;8.20;99.90
56512;DHT22;42408;53.238;5.686;2023-12-20T05:29:12;8.10;99.90
56512;DHT22;42408;53.238;5.686;2023-12-20T05:31:37;8.10;99.90
56512;DHT22;42408;53.238;5.686;2023-12-20T05:34:03;8.20;99.90
56512;DHT22;42408;53.238;5.686;2023-12-20T05:36:29;8.20;99.90
56512;DHT22;42408;53.238;5.686;2023-12-20T05:38:54;8.20;99.90
56512;DHT22;42408;53.238;5.686;2023-12-20T05:41:19;8.20;99.90
56512;DHT22;42408;53.238;5.686;2023-12-20T05:43:46;8.20;99.90
56512;DHT22;42408;53.238;5.686;2023-12-20T05:46:12;8.20;99.90
56512;DHT22;42408;53.238;5.686;2023-12-20T05:48:37;8.20;99.90
56512;DHT22;42408;53.238;5.686;2023-12-20T05:51:03;8.20;99.90
56512;DHT22;42408;53.238;5.686;2023-12-20T05:53:29;8.20;99.90
56512;DHT22;42408;53.238;5.686;2023-12-20T05:55:54;8.20;99.90
56512;DHT22;42408;53.238;5.686;2023-12-20T05:58:20;8.60;99.90
56512;DHT22;42408;53.238;5.686;2023-12-20T06:00:45;8.20;99.90
56512;DHT22;42408;53.238;5.686;2023-12-20T06:03:11;8.30;99.90
56512;DHT22;42408;53.238;5.686;2023-12-20T06:05:36;8.30;99.90
56512;DHT22;42408;53.238;5.686;2023-12-20T06:08:02;8.30;99.90
56512;DHT22;42408;53.238;5.686;2023-12-20T06:10:28;8.30;99.90
56512;DHT22;42408;53.238;5.686;2023-12-20T06:12:54;8.30;99.90
56512;DHT22;42408;53.238;5.686;2023-12-20T06:15:20;8.30;99.90
56512;DHT22;42408;53.238;5.686;2023-12-20T06:17:46;8.30;99.90
56512;DHT22;42408;53.238;5.686;2023-12-20T06:20:12;8.30;99.90
56512;DHT22;42408;53.238;5.686;2023-12-20T06:22:38;8.30;99.90
56512;DHT22;42408;53.238;5.686;2023-12-20T06:25:04;8.30;99.90
56512;DHT22;42408;53.238;5.686;2023-12-20T06:27:29;8.30;99.90
56512;DHT22;42408;53.238;5.686;2023-12-20T06:29:56;8.40;99.90
56512;DHT22;42408;53.238;5.686;2023-12-20T06:32:21;8.40;99.90
56512;DHT22;42408;53.238;5.686;2023-12-20T06:34:48;8.30;99.90
56512;DHT22;42408;53.238;5.686;2023-12-20T06:37:14;8.30;99.90
56512;DHT22;42408;53.238;5.686;2023-12-20T06:39:40;8.30;99.90
56512;DHT22;42408;53.238;5.686;2023-12-20T06:42:06;8.30;99.90
56512;DHT22;42408;53.238;5.686;2023-12-20T06:44:31;8.20;99.90
56512;DHT22;42408;53.238;5.686;2023-12-20T06:46:57;8.30;99.90
56512;DHT22;42408;53.238;5.686;2023-12-20T06:49:23;8.40;99.90
56512;DHT22;42408;53.238;5.686;2023-12-20T06:51:48;8.30;99.90
56512;DHT22;42408;53.238;5.686;2023-12-20T06:54:14;8.30;99.90
56512;DHT22;42408;53.238;5.686;2023-12-20T06:56:39;8.30;99.90
56512;DHT22;42408;53.238;5.686;2023-12-20T06:59:06;8.30;99.90
56512;DHT22;42408;53.238;5.686;2023-12-20T07:01:31;8.40;99.90
56512;DHT22;42408;53.238;5.686;2023-12-20T07:03:57;8.20;99.90
56512;DHT22;42408;53.238;5.686;2023-12-20T07:06:22;8.30;99.90
56512;DHT22;42408;53.238;5.686;2023-12-20T07:08:49;8.30;99.90
56512;DHT22;42408;53.238;5.686;2023-12-20T07:11:14;8.40;99.90
56512;DHT22;42408;53.238;5.686;2023-12-20T07:13:40;8.30;99.90
56512;DHT22;42408;53.238;5.686;2023-12-20T07:16:05;8.30;99.90
56512;DHT22;42408;53.238;5.686;2023-12-20T07:18:31;8.20;99.90
56512;DHT22;42408;53.238;5.686;2023-12-20T07:20:57;8.20;99.90
56512;DHT22;42408;53.238;5.686;2023-12-20T07:23:22;8.20;99.90
56512;DHT22;42408;53.238;5.686;2023-12-20T07:25:48;8.20;99.90
56512;DHT22;42408;53.238;5.686;2023-12-20T07:28:13;8.20;99.90
56512;DHT22;42408;53.238;5.686;2023-12-20T07:30:39;8.30;99.90
56512;DHT22;42408;53.238;5.686;2023-12-20T07:33:04;8.30;99.90
56512;DHT22;42408;53.238;5.686;2023-12-20T07:35:30;8.30;99.90
56512;DHT22;42408;53.238;5.686;2023-12-20T07:37:55;8.30;99.90
56512;DHT22;42408;53.238;5.686;2023-12-20T07:40:21;8.30;99.90
56512;DHT22;42408;53.238;5.686;2023-12-20T07:42:46;8.30;99.90
56512;DHT22;42408;53.238;5.686;2023-12-20T07:45:12;8.40;99.90
56512;DHT22;42408;53.238;5.686;2023-12-20T07:47:38;8.30;99.90
56512;DHT22;42408;53.238;5.686;2023-12-20T07:50:03;8.30;99.90
56512;DHT22;42408;53.238;5.686;2023-12-20T07:52:29;8.30;99.90
56512;DHT22;42408;53.238;5.686;2023-12-20T07:54:55;8.30;99.90
56512;DHT22;42408;53.238;5.686;2023-12-20T07:57:20;8.30;99.90
56512;DHT22;42408;53.238;5.686;2023-12-20T07:59:46;8.20;99.90
56512;DHT22;42408;53.238;5.686;2023-12-20T08:02:12;8.10;99.90
56512;DHT22;42408;53.238;5.686;2023-12-20T08:04:37;8.10;99.90
56512;DHT22;42408;53.238;5.686;2023-12-20T08:07:03;8.10;99.90
56512;DHT22;42408;53.238;5.686;2023-12-20T08:09:29;8.10;99.90
56512;DHT22;42408;53.238;5.686;2023-12-20T08:11:55;8.10;99.90
56512;DHT22;42408;53.238;5.686;2023-12-20T08:14:20;8.10;99.90
56512;DHT22;42408;53.238;5.686;2023-12-20T08:16:46;8.10;99.90
56512;DHT22;42408;53.238;5.686;2023-12-20T08:19:11;8.10;99.90
56512;DHT22;42408;53.238;5.686;2023-12-20T08:21:38;8.20;99.90
56512;DHT22;42408;53.238;5.686;2023-12-20T08:24:04;8.20;99.90
56512;DHT22;42408;53.238;5.686;2023-12-20T08:26:30;8.20;99.90
56512;DHT22;42408;53.238;5.686;2023-12-20T08:28:55;8.20;99.90
56512;DHT22;42408;53.238;5.686;2023-12-20T08:31:21;8.30;99.90
56512;DHT22;42408;53.238;5.686;2023-12-20T08:33:47;8.30;99.90
56512;DHT22;42408;53.238;5.686;2023-12-20T08:36:12;8.30;99.90
56512;DHT22;42408;53.238;5.686;2023-12-20T08:38:38;8.30;99.90
56512;DHT22;42408;53.238;5.686;2023-12-20T08:41:04;8.30;99.90
56512;DHT22;42408;53.238;5.686;2023-12-20T08:43:36;8.30;99.90
56512;DHT22;42408;53.238;5.686;2023-12-20T08:46:01;8.30;99.90
56512;DHT22;42408;53.238;5.686;2023-12-20T08:48:27;8.30;99.90
56512;DHT22;42408;53.238;5.686;2023-12-20T08:50:53;8.30;99.90
56512;DHT22;42408;53.238;5.686;2023-12-20T08:53:18;8.10;99.90
56512;DHT22;42408;53.238;5.686;2023-12-20T08:55:44;8.00;99.90
56512;DHT22;42408;53.238;5.686;2023-12-20T08:58:10;7.90;99.90
56512;DHT22;42408;53.238;5.686;2023-12-20T09:00:35;7.70;99.90
56512;DHT22;42408;53.238;5.686;2023-12-20T09:03:01;7.60;99.90
56512;DHT22;42408;53.238;5.686;2023-12-20T09:05:27;7.50;99.90
56512;DHT22;42408;53.238;5.686;2023-12-20T09:07:53;7.50;99.90
56512;DHT22;42408;53.238;5.686;2023-12-20T09:10:18;7.30;99.90
56512;DHT22;42408;53.238;5.686;2023-12-20T09:12:48;7.30;99.90
56512;DHT22;42408;53.238;5.686;2023-12-20T09:15:13;7.30;99.90
56512;DHT22;42408;53.238;5.686;2023-12-20T09:17:39;7.20;99.90
56512;DHT22;42408;53.238;5.686;2023-12-20T09:20:05;7.30;99.90
56512;DHT22;42408;53.238;5.686;2023-12-20T09:22:33;7.20;99.90
56512;DHT22;42408;53.238;5.686;2023-12-20T09:24:59;7.20;99.90
56512;DHT22;42408;53.238;5.686;2023-12-20T09:27:24;7.20;99.90
56512;DHT22;42408;53.238;5.686;2023-12-20T09:29:50;7.20;99.90
56512;DHT22;42408;53.238;5.686;2023-12-20T09:32:15;7.20;99.90
56512;DHT22;42408;53.238;5.686;2023-12-20T09:34:41;7.20;99.90
56512;DHT22;42408;53.238;5.686;2023-12-20T09:37:07;8.20;99.90
56512;DHT22;42408;53.238;5.686;2023-12-20T09:39:33;7.30;99.90
56512;DHT22;42408;53.238;5.686;2023-12-20T09:42:04;7.30;99.90
56512;DHT22;42408;53.238;5.686;2023-12-20T09:44:30;7.20;99.90
56512;DHT22;42408;53.238;5.686;2023-12-20T09:46:56;7.20;99.90
56512;DHT22;42408;53.238;5.686;2023-12-20T09:49:22;7.20;99.90
56512;DHT22;42408;53.238;5.686;2023-12-20T09:51:48;7.20;99.90
56512;DHT22;42408;53.238;5.686;2023-12-20T09:54:16;7.20;99.90
56512;DHT22;42408;53.238;5.686;2023-12-20T09:56:42;7.10;99.90
56512;DHT22;42408;53.238;5.686;2023-12-20T09:59:07;7.10;99.90
56512;DHT22;42408;53.238;5.686;2023-12-20T10:01:33;7.10;99.90
56512;DHT22;42408;53.238;5.686;2023-12-20T10:03:59;7.10;99.90
56512;DHT22;42408;53.238;5.686;2023-12-20T10:06:25;7.20;99.90
56512;DHT22;42408;53.238;5.686;2023-12-20T10:08:51;7.30;99.90
56512;DHT22;42408;53.238;5.686;2023-12-20T10:11:17;7.40;99.90
56512;DHT22;42408;53.238;5.686;2023-12-20T10:13:42;7.40;99.90
56512;DHT22;42408;53.238;5.686;2023-12-20T10:16:08;7.50;99.90
56512;DHT22;42408;53.238;5.686;2023-12-20T10:18:34;7.70;99.90
56512;DHT22;42408;53.238;5.686;2023-12-20T10:21:00;7.60;99.90
56512;DHT22;42408;53.238;5.686;2023-12-20T10:23:25;7.60;99.90
56512;DHT22;42408;53.238;5.686;2023-12-20T10:25:57;7.60;99.90
56512;DHT22;42408;53.238;5.686;2023-12-20T10:28:26;7.70;99.90
56512;DHT22;42408;53.238;5.686;2023-12-20T10:30:53;7.80;99.90
56512;DHT22;42408;53.238;5.686;2023-12-20T10:33:25;7.80;99.90
56512;DHT22;42408;53.238;5.686;2023-12-20T10:35:51;7.90;99.90
56512;DHT22;42408;53.238;5.686;2023-12-20T10:38:17;7.90;99.90
56512;DHT22;42408;53.238;5.686;2023-12-20T10:40:42;7.90;99.90
56512;DHT22;42408;53.238;5.686;2023-12-20T10:43:10;7.90;99.90
56512;DHT22;42408;53.238;5.686;2023-12-20T10:45:36;8.00;99.90
56512;DHT22;42408;53.238;5.686;2023-12-20T10:48:01;8.00;99.90
56512;DHT22;42408;53.238;5.686;2023-12-20T10:50:27;8.00;99.90
56512;DHT22;42408;53.238;5.686;2023-12-20T10:52:56;8.00;99.90
56512;DHT22;42408;53.238;5.686;2023-12-20T10:55:22;8.00;99.90
56512;DHT22;42408;53.238;5.686;2023-12-20T10:57:49;8.00;99.90
56512;DHT22;42408;53.238;5.686;2023-12-20T11:00:17;8.10;99.90
56512;DHT22;42408;53.238;5.686;2023-12-20T11:02:43;8.20;99.90
56512;DHT22;42408;53.238;5.686;2023-12-20T11:07:48;8.20;99.90
56512;DHT22;42408;53.238;5.686;2023-12-20T11:10:31;8.30;99.90
56512;DHT22;42408;53.238;5.686;2023-12-20T11:15:27;8.40;99.90
56512;DHT22;42408;53.238;5.686;2023-12-20T11:17:56;8.50;99.90
56512;DHT22;42408;53.238;5.686;2023-12-20T11:20:23;8.50;99.90
56512;DHT22;42408;53.238;5.686;2023-12-20T11:22:54;8.50;99.90
56512;DHT22;42408;53.238;5.686;2023-12-20T11:25:20;8.60;99.90
56512;DHT22;42408;53.238;5.686;2023-12-20T11:28:06;8.70;99.90
56512;DHT22;42408;53.238;5.686;2023-12-20T11:30:40;8.60;99.90
56512;DHT22;42408;53.238;5.686;2023-12-20T11:33:07;8.60;99.90
56512;DHT22;42408;53.238;5.686;2023-12-20T11:35:33;8.70;99.90
56512;DHT22;42408;53.238;5.686;2023-12-20T11:38:00;8.60;99.90
56512;DHT22;42408;53.238;5.686;2023-12-20T11:40:26;8.70;99.90
56512;DHT22;42408;53.238;5.686;2023-12-20T11:42:52;8.60;99.90
56512;DHT22;42408;53.238;5.686;2023-12-20T11:45:23;8.60;99.90
56512;DHT22;42408;53.238;5.686;2023-12-20T11:47:51;8.70;99.90
56512;DHT22;42408;53.238;5.686;2023-12-20T11:50:17;8.70;99.90
56512;DHT22;42408;53.238;5.686;2023-12-20T11:52:43;8.70;99.90
56512;DHT22;42408;53.238;5.686;2023-12-20T11:55:08;8.70;99.90
56512;DHT22;42408;53.238;5.686;2023-12-20T11:57:34;8.70;99.90
56512;DHT22;42408;53.238;5.686;2023-12-20T11:59:59;8.60;99.90
56512;DHT22;42408;53.238;5.686;2023-12-20T12:02:25;8.60;99.90
56512;DHT22;42408;53.238;5.686;2023-12-20T12:04:50;8.60;99.90
56512;DHT22;42408;53.238;5.686;2023-12-20T12:07:16;8.70;99.90
56512;DHT22;42408;53.238;5.686;2023-12-20T12:09:42;8.60;99.90
56512;DHT22;42408;53.238;5.686;2023-12-20T12:12:08;8.60;99.90
56512;DHT22;42408;53.238;5.686;2023-12-20T12:14:33;8.50;99.90
56512;DHT22;42408;53.238;5.686;2023-12-20T12:17:00;8.50;99.90
56512;DHT22;42408;53.238;5.686;2023-12-20T12:19:26;8.50;99.90
56512;DHT22;42408;53.238;5.686;2023-12-20T12:22:04;8.50;99.90
56512;DHT22;42408;53.238;5.686;2023-12-20T12:24:32;8.40;99.90
56512;DHT22;42408;53.238;5.686;2023-12-20T12:26:58;8.40;99.90
56512;DHT22;42408;53.238;5.686;2023-12-20T12:29:23;8.40;99.90
56512;DHT22;42408;53.238;5.686;2023-12-20T12:31:50;8.30;99.90
56512;DHT22;42408;53.238;5.686;2023-12-20T12:34:16;8.30;99.90
56512;DHT22;42408;53.238;5.686;2023-12-20T12:36:43;8.30;99.90
56512;DHT22;42408;53.238;5.686;2023-12-20T12:39:09;8.20;99.90
56512;DHT22;42408;53.238;5.686;2023-12-20T12:41:35;8.10;99.90
56512;DHT22;42408;53.238;5.686;2023-12-20T12:44:00;8.10;99.90
56512;DHT22;42408;53.238;5.686;2023-12-20T12:46:26;8.10;99.90
56512;DHT22;42408;53.238;5.686;2023-12-20T12:48:51;8.00;99.90
56512;DHT22;42408;53.238;5.686;2023-12-20T12:51:17;8.00;99.90
56512;DHT22;42408;53.238;5.686;2023-12-20T12:53:42;7.90;99.90
56512;DHT22;42408;53.238;5.686;2023-12-20T12:56:08;7.90;99.90
56512;DHT22;42408;53.238;5.686;2023-12-20T12:58:33;7.80;99.90
56512;DHT22;42408;53.238;5.686;2023-12-20T13:00:59;7.80;99.90
56512;DHT22;42408;53.238;5.686;2023-12-20T13:03:24;8.00;99.90
56512;DHT22;42408;53.238;5.686;2023-12-20T13:05:50;7.80;99.90
56512;DHT22;42408;53.238;5.686;2023-12-20T13:08:16;7.70;99.90
56512;DHT22;42408;53.238;5.686;2023-12-20T13:10:41;7.70;99.90
56512;DHT22;42408;53.238;5.686;2023-12-20T13:13:07;7.70;99.90
56512;DHT22;42408;53.238;5.686;2023-12-20T13:15:32;7.70;99.90
56512;DHT22;42408;53.238;5.686;2023-12-20T13:17:58;7.60;99.90
56512;DHT22;42408;53.238;5.686;2023-12-20T13:20:23;7.60;99.90
56512;DHT22;42408;53.238;5.686;2023-12-20T13:22:49;7.70;99.90
56512;DHT22;42408;53.238;5.686;2023-12-20T13:25:14;7.60;99.90
56512;DHT22;42408;53.238;5.686;2023-12-20T13:27:41;7.60;99.90
56512;DHT22;42408;53.238;5.686;2023-12-20T13:30:06;7.70;99.90
56512;DHT22;42408;53.238;5.686;2023-12-20T13:32:32;7.60;99.90
56512;DHT22;42408;53.238;5.686;2023-12-20T13:34:58;7.60;99.90
56512;DHT22;42408;53.238;5.686;2023-12-20T13:37:23;7.70;99.90
56512;DHT22;42408;53.238;5.686;2023-12-20T13:39:49;7.70;99.90
56512;DHT22;42408;53.238;5.686;2023-12-20T13:42:14;7.70;99.90
56512;DHT22;42408;53.238;5.686;2023-12-20T13:44:40;7.70;99.90
56512;DHT22;42408;53.238;5.686;2023-12-20T13:47:05;7.70;99.90
56512;DHT22;42408;53.238;5.686;2023-12-20T13:49:31;7.80;99.90
56512;DHT22;42408;53.238;5.686;2023-12-20T13:51:57;7.90;99.90
56512;DHT22;42408;53.238;5.686;2023-12-20T13:54:23;7.80;99.90
56512;DHT22;42408;53.238;5.686;2023-12-20T13:56:48;7.80;99.90
56512;DHT22;42408;53.238;5.686;2023-12-20T13:59:14;7.80;99.90
56512;DHT22;42408;53.238;5.686;2023-12-20T14:01:40;7.80;99.90
56512;DHT22;42408;53.238;5.686;2023-12-20T14:04:06;7.80;99.90
56512;DHT22;42408;53.238;5.686;2023-12-20T14:06:32;7.70;99.90
56512;DHT22;42408;53.238;5.686;2023-12-20T14:08:58;7.70;99.90
56512;DHT22;42408;53.238;5.686;2023-12-20T14:11:25;7.80;99.90
56512;DHT22;42408;53.238;5.686;2023-12-20T14:13:51;7.80;99.90
56512;DHT22;42408;53.238;5.686;2023-12-20T14:16:16;7.70;99.90
56512;DHT22;42408;53.238;5.686;2023-12-20T14:18:42;7.70;99.90
56512;DHT22;42408;53.238;5.686;2023-12-20T14:21:07;7.70;99.90
56512;DHT22;42408;53.238;5.686;2023-12-20T14:23:33;7.80;99.90
56512;DHT22;42408;53.238;5.686;2023-12-20T14:25:59;7.90;99.90
56512;DHT22;42408;53.238;5.686;2023-12-20T14:28:25;7.80;99.90
56512;DHT22;42408;53.238;5.686;2023-12-20T14:30:50;7.90;99.90
56512;DHT22;42408;53.238;5.686;2023-12-20T14:33:16;7.90;99.90
56512;DHT22;42408;53.238;5.686;2023-12-20T14:35:41;7.90;99.90
56512;DHT22;42408;53.238;5.686;2023-12-20T14:38:09;8.00;99.90
56512;DHT22;42408;53.238;5.686;2023-12-20T14:40:34;8.00;99.90
56512;DHT22;42408;53.238;5.686;2023-12-20T14:43:00;8.10;99.90
56512;DHT22;42408;53.238;5.686;2023-12-20T14:45:26;8.10;99.90
56512;DHT22;42408;53.238;5.686;2023-12-20T14:47:52;8.10;99.90
56512;DHT22;42408;53.238;5.686;2023-12-20T14:50:18;8.10;99.90
56512;DHT22;42408;53.238;5.686;2023-12-20T14:52:44;8.20;99.90
56512;DHT22;42408;53.238;5.686;2023-12-20T14:55:10;8.30;99.90
56512;DHT22;42408;53.238;5.686;2023-12-20T14:57:36;8.20;99.90
56512;DHT22;42408;53.238;5.686;2023-12-20T15:00:02;8.20;99.90
56512;DHT22;42408;53.238;5.686;2023-12-20T15:02:27;8.20;99.90
56512;DHT22;42408;53.238;5.686;2023-12-20T15:04:53;8.20;99.90
56512;DHT22;42408;53.238;5.686;2023-12-20T15:07:18;8.20;99.90
56512;DHT22;42408;53.238;5.686;2023-12-20T15:09:44;8.20;99.90
56512;DHT22;42408;53.238;5.686;2023-12-20T15:12:11;8.20;99.90
56512;DHT22;42408;53.238;5.686;2023-12-20T15:14:37;8.20;99.90
56512;DHT22;42408;53.238;5.686;2023-12-20T15:17:03;8.20;99.90
56512;DHT22;42408;53.238;5.686;2023-12-20T15:19:30;8.20;99.90
56512;DHT22;42408;53.238;5.686;2023-12-20T15:21:56;8.20;99.90
56512;DHT22;42408;53.238;5.686;2023-12-20T15:24:21;8.20;99.90
56512;DHT22;42408;53.238;5.686;2023-12-20T15:26:53;8.20;99.90
56512;DHT22;42408;53.238;5.686;2023-12-20T15:29:19;8.20;99.90
56512;DHT22;42408;53.238;5.686;2023-12-20T15:31:45;8.20;99.90
56512;DHT22;42408;53.238;5.686;2023-12-20T15:34:11;8.30;99.90
56512;DHT22;42408;53.238;5.686;2023-12-20T15:36:37;8.20;99.90
56512;DHT22;42408;53.238;5.686;2023-12-20T15:39:04;8.20;99.90
56512;DHT22;42408;53.238;5.686;2023-12-20T15:41:29;8.20;99.90